createdAt,value
2023-06-30T00:02:31.184Z,46.30
2023-06-30T00:05:17.037Z,46.35
2023-06-30T00:08:02.786Z,46.46
2023-06-30T00:10:48.670Z,46.41
2023-06-30T00:13:34.819Z,46.33
2023-06-30T00:16:21.455Z,46.31
2023-06-30T00:19:07.602Z,46.42
2023-06-30T00:21:55.272Z,46.40
2023-06-30T00:24:41.506Z,46.49
2023-06-30T00:27:27.495Z,46.41
2023-06-30T00:30:13.416Z,46.43
2023-06-30T00:32:59.736Z,46.36
2023-06-30T00:35:46.184Z,46.50
2023-06-30T00:38:33.778Z,46.41
2023-06-30T00:41:19.900Z,46.50
2023-06-30T00:44:05.694Z,46.54
2023-06-30T00:46:51.625Z,46.58
2023-06-30T00:49:37.352Z,46.43
2023-06-30T00:52:25.351Z,46.30
2023-06-30T00:55:11.586Z,46.47
2023-06-30T00:57:57.679Z,46.49
2023-06-30T01:00:43.648Z,46.37
2023-06-30T01:03:40.629Z,46.57
2023-06-30T01:07:02.109Z,46.63
2023-06-30T01:10:08.753Z,46.41
2023-06-30T01:12:55.091Z,46.49
2023-06-30T01:15:43.571Z,46.45
2023-06-30T01:18:33.752Z,46.39
2023-06-30T01:21:20.483Z,46.38
2023-06-30T01:24:08.491Z,46.38
2023-06-30T01:26:54.718Z,46.36
2023-06-30T01:29:43.585Z,46.37
2023-06-30T01:32:30.861Z,46.49
2023-06-30T01:35:16.857Z,46.57
2023-06-30T01:38:03.505Z,46.51
2023-06-30T01:40:50.755Z,46.53
2023-06-30T01:43:36.989Z,46.61
2023-06-30T01:46:23.120Z,46.48
2023-06-30T01:49:10.926Z,46.52
2023-06-30T01:51:58.522Z,46.63
2023-06-30T01:54:44.429Z,46.82
2023-06-30T01:57:30.482Z,46.83
2023-06-30T02:00:16.584Z,46.82
2023-06-30T02:03:02.434Z,46.74
2023-06-30T02:05:48.614Z,46.74
2023-06-30T02:08:34.906Z,46.63
2023-06-30T02:11:21.846Z,46.68
2023-06-30T02:14:08.963Z,46.73
2023-06-30T02:16:55.224Z,46.75
2023-06-30T02:19:41.748Z,46.76
2023-06-30T02:22:28.147Z,46.73
2023-06-30T02:25:13.913Z,46.85
2023-06-30T02:27:59.758Z,46.78
2023-06-30T02:30:45.905Z,46.95
2023-06-30T02:33:32.261Z,46.89
2023-06-30T02:36:18.204Z,46.76
2023-06-30T02:39:06.122Z,46.76
2023-06-30T02:41:52.502Z,46.76
2023-06-30T02:44:38.731Z,46.81
2023-06-30T02:47:24.974Z,46.91
2023-06-30T02:50:11.709Z,46.71
2023-06-30T02:53:01.437Z,46.74
2023-06-30T02:55:48.114Z,46.93
2023-06-30T02:58:37.631Z,46.88
2023-06-30T03:01:25.837Z,46.84
2023-06-30T03:04:19.378Z,46.95
2023-06-30T03:07:05.577Z,46.98
2023-06-30T03:09:51.779Z,46.94
2023-06-30T03:12:38.593Z,46.89
2023-06-30T03:15:25.091Z,47.10
2023-06-30T03:18:11.516Z,46.96
2023-06-30T03:20:58.578Z,47.09
2023-06-30T03:23:44.700Z,47.02
2023-06-30T03:26:30.940Z,46.65
2023-06-30T03:29:17.083Z,46.84
2023-06-30T03:32:05.696Z,46.97
2023-06-30T03:34:53.312Z,46.93
2023-06-30T03:37:39.944Z,46.96
2023-06-30T03:40:26.569Z,46.92
2023-06-30T03:43:13.082Z,47.04
2023-06-30T03:45:59.062Z,47.08
2023-06-30T03:48:46.736Z,46.92
2023-06-30T03:51:33.412Z,46.82
2023-06-30T03:54:19.414Z,47.04
2023-06-30T03:57:05.628Z,47.07
2023-06-30T03:59:52.873Z,46.86
2023-06-30T04:02:39.428Z,46.90
2023-06-30T04:05:26.658Z,46.95
2023-06-30T04:08:12.696Z,47.01
2023-06-30T04:10:58.808Z,46.95
2023-06-30T04:13:44.938Z,47.32
2023-06-30T04:16:33.091Z,47.21
2023-06-30T04:19:23.401Z,47.12
2023-06-30T04:22:15.593Z,47.20
2023-06-30T04:25:05.674Z,47.18
2023-06-30T04:27:51.994Z,47.19
2023-06-30T04:30:41.418Z,47.28
2023-06-30T04:33:27.301Z,47.47
2023-06-30T04:36:14.504Z,47.46
2023-06-30T04:39:00.438Z,47.07
2023-06-30T04:41:54.890Z,47.25
2023-06-30T04:44:41.667Z,47.19
2023-06-30T04:47:29.128Z,47.19
2023-06-30T04:50:19.545Z,47.14
2023-06-30T04:53:05.744Z,47.17
2023-06-30T04:55:52.790Z,47.07
2023-06-30T04:58:38.978Z,47.19
2023-06-30T05:01:24.964Z,47.31
2023-06-30T05:04:11.179Z,47.28
2023-06-30T05:06:57.478Z,47.37
2023-06-30T05:09:43.742Z,47.34
2023-06-30T05:12:29.961Z,47.36
2023-06-30T05:15:16.090Z,47.50
2023-06-30T05:18:02.324Z,47.42
2023-06-30T05:20:48.392Z,47.32
2023-06-30T05:23:35.390Z,47.46
2023-06-30T05:26:21.467Z,47.43
2023-06-30T05:29:08.021Z,47.54
2023-06-30T05:31:54.201Z,47.34
2023-06-30T05:34:43.444Z,47.34
2023-06-30T05:37:29.533Z,47.47
2023-06-30T05:40:15.509Z,47.55
2023-06-30T05:43:01.455Z,47.42
2023-06-30T05:45:50.945Z,47.39
2023-06-30T05:48:37.264Z,47.37
2023-06-30T05:51:23.435Z,47.49
2023-06-30T05:54:11.569Z,47.34
2023-06-30T05:56:57.623Z,47.40
2023-06-30T05:59:44.438Z,47.36
2023-06-30T06:02:30.451Z,47.47
2023-06-30T06:05:18.704Z,47.37
2023-06-30T06:08:05.854Z,47.36
2023-06-30T06:10:52.193Z,47.32
2023-06-30T06:13:39.078Z,47.34
2023-06-30T06:16:24.962Z,47.31
2023-06-30T06:19:11.112Z,47.43
2023-06-30T06:21:57.149Z,47.41
2023-06-30T06:24:42.821Z,47.48
2023-06-30T06:27:34.662Z,47.54
2023-06-30T06:30:20.738Z,47.25
2023-06-30T06:33:07.094Z,47.34
2023-06-30T06:35:53.651Z,47.39
2023-06-30T06:38:41.076Z,47.41
2023-06-30T06:41:27.225Z,47.43
2023-06-30T06:44:13.351Z,47.34
2023-06-30T06:47:37.556Z,47.58
2023-06-30T06:50:23.867Z,47.42
2023-06-30T06:53:10.039Z,47.30
2023-06-30T06:55:57.406Z,47.40
2023-06-30T06:58:43.612Z,47.31
2023-06-30T07:01:31.648Z,47.18
2023-06-30T07:04:18.083Z,47.17
2023-06-30T07:07:04.258Z,47.02
2023-06-30T07:09:51.241Z,47.11
2023-06-30T07:12:37.348Z,46.85
2023-06-30T07:15:23.691Z,47.08
2023-06-30T07:18:09.684Z,47.00
2023-06-30T07:20:56.110Z,46.82
2023-06-30T07:23:42.272Z,46.82
2023-06-30T07:26:28.514Z,46.82
2023-06-30T07:29:14.779Z,46.74
2023-06-30T07:32:01.063Z,46.69
2023-06-30T07:34:47.024Z,46.70
2023-06-30T07:37:32.896Z,46.53
2023-06-30T07:40:21.916Z,46.47
2023-06-30T07:43:08.921Z,46.30
2023-06-30T07:45:55.001Z,46.44
2023-06-30T07:48:41.042Z,46.30
2023-06-30T07:51:26.880Z,46.25
2023-06-30T07:54:12.824Z,46.18
2023-06-30T07:56:59.086Z,46.12
2023-06-30T07:59:45.335Z,46.05
2023-06-30T08:02:31.480Z,46.33
2023-06-30T08:05:17.890Z,45.95
2023-06-30T08:08:04.508Z,45.88
2023-06-30T08:10:50.751Z,45.95
2023-06-30T08:13:36.570Z,46.01
2023-06-30T08:16:22.546Z,45.70
2023-06-30T08:19:08.571Z,45.69
2023-06-30T08:22:19.281Z,45.48
2023-06-30T08:25:05.909Z,45.60
2023-06-30T08:27:53.105Z,45.42
2023-06-30T08:30:39.235Z,45.38
2023-06-30T08:36:20.470Z,45.07
2023-06-30T08:39:06.086Z,44.91
2023-06-30T08:41:54.975Z,44.45
2023-06-30T08:44:44.993Z,44.43
2023-06-30T08:47:33.020Z,44.46
2023-06-30T08:50:21.107Z,44.26
2023-06-30T08:53:07.042Z,44.17
2023-06-30T08:55:53.636Z,44.23
2023-06-30T08:58:39.330Z,44.05
2023-06-30T09:01:26.090Z,44.12
2023-06-30T09:04:13.431Z,44.31
2023-06-30T09:07:01.501Z,44.30
2023-06-30T09:09:47.864Z,44.18
2023-06-30T09:12:34.028Z,44.33
2023-06-30T09:15:21.377Z,44.30
2023-06-30T09:18:07.651Z,44.36
2023-06-30T09:20:56.080Z,44.52
2023-06-30T09:23:42.694Z,44.60
2023-06-30T09:26:32.454Z,44.40
2023-06-30T09:29:50.179Z,44.62
2023-06-30T09:32:39.993Z,45.30
2023-06-30T09:35:26.019Z,45.94
2023-06-30T09:38:16.235Z,46.19
2023-06-30T09:41:21.081Z,46.43
2023-06-30T09:44:07.045Z,46.60
2023-06-30T09:46:54.454Z,46.78
2023-06-30T09:49:55.416Z,46.34
2023-06-30T09:52:42.246Z,46.56
2023-06-30T09:55:28.117Z,46.27
2023-06-30T09:59:19.619Z,45.93
2023-06-30T10:02:06.047Z,45.99
2023-06-30T10:04:52.137Z,45.89
2023-06-30T10:07:51.114Z,45.66
2023-06-30T10:10:37.278Z,45.70
2023-06-30T10:14:31.695Z,45.50
2023-06-30T10:17:17.625Z,45.53
2023-06-30T10:20:07.289Z,45.30
2023-06-30T10:28:02.179Z,44.64
2023-06-30T10:40:30.362Z,44.15
2023-06-30T10:43:18.614Z,44.19
2023-06-30T10:50:41.390Z,43.94
2023-06-30T10:53:28.186Z,43.67
2023-06-30T10:56:14.514Z,43.59
2023-06-30T10:59:00.606Z,43.51
2023-06-30T11:02:24.650Z,43.21
2023-06-30T11:05:22.826Z,42.85
2023-06-30T11:08:10.510Z,42.92
2023-06-30T11:11:02.822Z,42.68
2023-06-30T11:13:48.874Z,42.57
2023-06-30T11:17:07.969Z,42.43
2023-06-30T11:20:03.185Z,42.02
2023-06-30T11:23:05.049Z,41.76
2023-06-30T11:25:50.855Z,41.62
2023-06-30T11:28:38.163Z,41.45
2023-06-30T11:31:24.129Z,41.25
2023-06-30T11:34:11.463Z,41.03
2023-06-30T11:36:57.335Z,41.13
2023-06-30T11:39:53.711Z,40.95
2023-06-30T11:42:43.399Z,41.02
2023-06-30T11:45:31.580Z,41.06
2023-06-30T11:48:17.730Z,40.76
2023-06-30T11:51:03.914Z,40.74
2023-06-30T11:53:53.093Z,40.54
2023-06-30T11:56:42.022Z,40.51
2023-06-30T11:59:28.391Z,40.33
2023-06-30T12:02:14.273Z,40.21
2023-06-30T12:05:00.516Z,40.25
2023-06-30T12:07:47.933Z,40.16
2023-06-30T12:10:38.643Z,40.09
2023-06-30T12:13:29.283Z,40.01
2023-06-30T12:16:15.159Z,40.20
2023-06-30T12:19:07.113Z,39.94
2023-06-30T12:22:10.710Z,40.00
2023-06-30T12:25:00.953Z,39.75
2023-06-30T12:27:46.742Z,39.64
2023-06-30T12:30:34.135Z,39.84
2023-06-30T12:33:20.985Z,39.54
2023-06-30T12:36:07.743Z,39.52
2023-06-30T12:38:54.007Z,39.54
2023-06-30T12:41:40.931Z,39.37
2023-06-30T12:44:29.056Z,39.29
2023-06-30T12:47:15.039Z,39.20
2023-06-30T12:50:01.275Z,38.96
2023-06-30T12:52:48.732Z,39.10
2023-06-30T12:55:43.221Z,38.86
2023-06-30T12:58:29.120Z,39.01
2023-06-30T13:01:20.604Z,38.69
2023-06-30T13:04:06.812Z,38.63
2023-06-30T13:06:53.203Z,38.55
2023-06-30T13:09:39.818Z,38.40
2023-06-30T13:12:27.593Z,38.31
2023-06-30T13:15:13.795Z,38.43
2023-06-30T13:18:00.863Z,38.01
2023-06-30T13:20:46.974Z,38.01
2023-06-30T13:23:37.573Z,37.65
2023-06-30T13:26:23.802Z,37.70
2023-06-30T13:29:11.694Z,37.26
2023-06-30T13:31:58.015Z,37.34
2023-06-30T13:34:45.395Z,36.97
2023-06-30T13:37:31.233Z,37.11
2023-06-30T13:40:17.435Z,36.80
2023-06-30T13:43:06.800Z,36.78
2023-06-30T13:45:52.936Z,36.48
2023-06-30T13:48:39.645Z,36.78
2023-06-30T13:51:25.731Z,36.71
2023-06-30T13:54:12.021Z,36.61
2023-06-30T13:56:58.333Z,36.29
2023-06-30T13:59:44.589Z,36.13
2023-06-30T14:02:34.320Z,35.84
2023-06-30T14:05:53.504Z,35.79
2023-06-30T14:09:46.766Z,34.97
2023-06-30T14:12:32.640Z,35.00
2023-06-30T14:15:20.800Z,35.12
2023-06-30T14:18:09.645Z,34.63
2023-06-30T14:20:56.740Z,34.48
2023-06-30T14:23:42.993Z,34.38
2023-06-30T14:26:30.916Z,33.85
2023-06-30T14:29:16.900Z,33.24
2023-06-30T14:32:03.652Z,32.89
2023-06-30T14:34:49.713Z,32.08
2023-06-30T14:38:22.115Z,31.07
2023-06-30T14:41:13.309Z,30.34
2023-06-30T14:44:01.531Z,29.44
2023-06-30T14:47:25.198Z,27.66
2023-06-30T14:50:12.677Z,28.55
2023-06-30T14:52:59.167Z,27.83
2023-06-30T14:55:45.405Z,27.81
2023-06-30T14:58:31.391Z,27.64
2023-06-30T15:01:18.646Z,27.13
2023-06-30T15:04:04.868Z,27.21
2023-06-30T15:06:51.120Z,27.62
2023-06-30T15:09:39.018Z,28.22
2023-06-30T15:12:25.771Z,28.85
2023-06-30T15:15:11.784Z,29.98
2023-06-30T15:18:01.222Z,30.70
2023-06-30T15:20:47.776Z,31.87
2023-06-30T15:23:33.896Z,32.29
2023-06-30T15:26:20.309Z,32.63
2023-06-30T15:29:07.706Z,32.96
2023-06-30T15:31:55.220Z,33.45
2023-06-30T15:34:41.668Z,33.75
2023-06-30T15:37:27.887Z,34.03
2023-06-30T15:40:14.640Z,34.24
2023-06-30T15:43:02.637Z,34.40
2023-06-30T15:45:53.029Z,34.40
2023-06-30T15:48:39.000Z,34.26
2023-06-30T15:51:25.235Z,34.79
2023-06-30T15:54:12.494Z,34.99
2023-06-30T15:56:58.430Z,34.95
2023-06-30T16:00:49.818Z,35.60
2023-06-30T16:03:38.970Z,35.79
2023-06-30T16:06:30.268Z,35.88
2023-06-30T16:09:16.100Z,35.63
2023-06-30T16:12:39.789Z,35.87
2023-06-30T16:15:25.919Z,35.86
2023-06-30T16:18:12.148Z,35.92
2023-06-30T16:20:59.593Z,36.10
2023-06-30T16:23:46.021Z,35.89
2023-06-30T16:26:54.115Z,36.21
2023-06-30T16:29:39.951Z,36.38
2023-06-30T16:33:05.475Z,36.59
2023-06-30T16:35:51.442Z,36.60
2023-06-30T16:38:40.691Z,36.77
2023-06-30T16:41:26.693Z,36.65
2023-06-30T16:45:20.377Z,36.32
2023-06-30T16:48:07.738Z,36.51
2023-06-30T16:50:56.782Z,36.53
2023-06-30T16:53:43.034Z,36.60
2023-06-30T16:57:03.300Z,36.83
2023-06-30T16:59:49.222Z,36.48
2023-06-30T17:02:36.046Z,36.59
2023-06-30T17:05:25.228Z,36.44
2023-06-30T17:08:11.300Z,36.46
2023-06-30T17:10:57.506Z,36.62
2023-06-30T17:13:43.930Z,36.13
2023-06-30T17:16:30.297Z,36.04
2023-06-30T17:19:16.619Z,36.21
2023-06-30T17:22:03.309Z,35.86
2023-06-30T17:24:49.257Z,35.90
2023-06-30T17:27:35.413Z,35.81
2023-06-30T17:30:21.363Z,36.19
2023-06-30T17:33:08.552Z,36.02
2023-06-30T17:35:55.458Z,36.15
2023-06-30T17:38:41.273Z,36.12
2023-06-30T17:41:27.267Z,36.30
2023-06-30T17:44:13.546Z,36.41
2023-06-30T17:47:01.380Z,36.31
2023-06-30T17:49:48.395Z,36.61
2023-06-30T17:52:34.651Z,36.88
2023-06-30T17:55:21.461Z,36.61
2023-06-30T17:58:08.132Z,36.83
2023-06-30T18:00:54.021Z,37.25
2023-06-30T18:03:40.103Z,37.37
2023-06-30T18:06:27.550Z,37.17
2023-06-30T18:09:13.524Z,37.48
2023-06-30T18:12:02.791Z,37.75
2023-06-30T18:14:48.889Z,37.67
2023-06-30T18:17:35.228Z,37.73
2023-06-30T18:20:22.061Z,38.04
2023-06-30T18:23:08.120Z,38.01
2023-06-30T18:25:56.997Z,38.05
2023-06-30T18:28:43.194Z,38.15
2023-06-30T18:31:29.268Z,38.43
2023-06-30T18:34:15.700Z,38.54
2023-06-30T18:37:01.659Z,38.65
2023-06-30T18:39:48.474Z,38.71
2023-06-30T18:42:34.717Z,38.59
2023-06-30T18:45:21.051Z,38.87
2023-06-30T18:48:07.118Z,38.91
2023-06-30T18:50:52.969Z,39.42
2023-06-30T18:53:38.911Z,39.42
2023-06-30T18:56:26.103Z,39.39
2023-06-30T18:59:13.114Z,39.67
2023-06-30T19:01:59.285Z,39.74
2023-06-30T19:04:46.134Z,39.61
2023-06-30T19:07:33.986Z,39.87
2023-06-30T19:10:20.930Z,39.86
2023-06-30T19:13:06.863Z,40.08
2023-06-30T19:15:54.065Z,40.04
2023-06-30T19:18:40.287Z,40.34
2023-06-30T19:21:36.675Z,40.37
2023-06-30T19:24:22.764Z,40.36
2023-06-30T19:27:09.789Z,40.48
2023-06-30T19:29:55.932Z,40.37
2023-06-30T19:32:43.095Z,40.56
2023-06-30T19:35:29.148Z,40.68
2023-06-30T19:38:15.430Z,40.59
2023-06-30T19:41:01.785Z,40.66
2023-06-30T19:43:48.376Z,40.61
2023-06-30T19:46:35.447Z,40.66
2023-06-30T19:49:21.592Z,40.71
2023-06-30T19:52:09.113Z,40.92
2023-06-30T19:54:55.150Z,40.91
2023-06-30T19:57:42.200Z,41.22
2023-06-30T20:00:28.441Z,41.12
2023-06-30T20:03:15.903Z,41.09
2023-06-30T20:06:01.787Z,41.25
2023-06-30T20:08:47.779Z,41.25
2023-06-30T20:11:33.834Z,41.44
2023-06-30T20:14:21.778Z,41.53
2023-06-30T20:17:09.123Z,41.69
2023-06-30T20:19:56.864Z,41.75
2023-06-30T20:22:43.021Z,41.69
2023-06-30T20:25:29.305Z,41.68
2023-06-30T20:28:15.514Z,41.74
2023-06-30T20:31:01.482Z,41.86
2023-06-30T20:33:47.594Z,41.94
2023-06-30T20:36:35.428Z,42.13
2023-06-30T20:39:21.279Z,42.00
2023-06-30T20:42:07.850Z,42.18
2023-06-30T20:44:54.113Z,42.31
2023-06-30T20:47:40.262Z,42.36
2023-06-30T20:50:26.087Z,42.35
2023-06-30T20:53:12.158Z,42.45
2023-06-30T20:55:59.281Z,42.53
2023-06-30T20:58:47.176Z,42.52
2023-06-30T21:01:33.253Z,42.63
2023-06-30T21:04:19.661Z,42.67
2023-06-30T21:07:06.183Z,42.55
2023-06-30T21:09:52.505Z,42.72
2023-06-30T21:12:40.161Z,42.62
2023-06-30T21:15:27.163Z,42.51
2023-06-30T21:18:14.542Z,42.25
2023-06-30T21:21:00.988Z,42.14
2023-06-30T21:23:46.764Z,41.89
2023-06-30T21:26:32.640Z,41.81
2023-06-30T21:29:18.681Z,41.94
2023-06-30T21:32:05.522Z,41.82
2023-06-30T21:34:54.634Z,41.83
2023-06-30T21:37:40.677Z,41.80
2023-06-30T21:40:26.910Z,41.75
2023-06-30T21:43:14.522Z,41.98
2023-06-30T21:46:12.958Z,42.14
2023-06-30T21:48:59.073Z,42.33
2023-06-30T21:51:44.882Z,42.60
2023-06-30T21:54:47.383Z,42.68
2023-06-30T21:57:34.634Z,42.96
2023-06-30T22:00:20.613Z,43.06
2023-06-30T22:03:07.175Z,43.32
2023-06-30T22:05:53.329Z,43.35
2023-06-30T22:08:39.468Z,43.29
2023-06-30T22:11:27.162Z,43.30
2023-06-30T22:14:13.623Z,43.17
2023-06-30T22:16:59.856Z,43.30
2023-06-30T22:19:47.724Z,43.40
2023-06-30T22:22:34.646Z,43.58
2023-06-30T22:25:21.703Z,43.53
2023-06-30T22:28:07.492Z,43.54
2023-06-30T22:30:53.326Z,43.76
2023-06-30T22:33:39.821Z,43.72
2023-06-30T22:36:25.913Z,43.84
2023-06-30T22:39:11.928Z,43.81
2023-06-30T22:41:57.903Z,44.18
2023-06-30T22:44:44.135Z,44.27
2023-06-30T22:47:31.492Z,44.36
2023-06-30T22:50:17.443Z,44.56
2023-06-30T22:53:05.638Z,44.60
2023-06-30T22:55:51.554Z,44.65
2023-06-30T22:58:37.276Z,44.88
2023-06-30T23:01:23.214Z,44.85
2023-06-30T23:04:09.191Z,45.10
2023-06-30T23:06:54.980Z,44.98
2023-06-30T23:09:41.849Z,45.17
2023-06-30T23:12:27.894Z,45.22
2023-06-30T23:15:13.967Z,45.21
2023-06-30T23:17:59.887Z,44.89
2023-06-30T23:20:48.387Z,45.03
2023-06-30T23:23:35.111Z,45.13
2023-06-30T23:26:23.039Z,45.31
2023-06-30T23:29:11.758Z,45.40
2023-06-30T23:32:07.870Z,45.43
2023-06-30T23:34:54.021Z,45.50
2023-06-30T23:37:40.700Z,45.67
2023-06-30T23:40:26.612Z,46.01
2023-06-30T23:43:12.664Z,45.83
2023-06-30T23:45:58.757Z,45.93
2023-06-30T23:48:44.793Z,45.94
2023-06-30T23:51:30.825Z,46.19
2023-06-30T23:54:16.770Z,46.14
2023-06-30T23:57:02.929Z,46.17
2023-06-30T23:59:48.742Z,46.10
